createdAt,value
2022-12-31T00:01:19.323Z,-0.10
2022-12-31T00:06:33.045Z,-0.10
2022-12-31T00:11:37.515Z,-0.20
2022-12-31T00:16:41.708Z,-0.30
2022-12-31T00:21:44.247Z,-0.30
2022-12-31T00:26:46.235Z,-0.30
2022-12-31T00:31:48.195Z,-0.30
2022-12-31T00:36:50.083Z,-0.30
2022-12-31T00:41:51.950Z,-0.30
2022-12-31T00:46:54.022Z,-0.30
2022-12-31T00:51:55.916Z,-0.30
2022-12-31T00:56:57.884Z,-0.30
2022-12-31T01:01:59.856Z,-0.30
2022-12-31T01:07:01.884Z,-0.10
2022-12-31T01:12:03.970Z,0.10
2022-12-31T01:17:05.859Z,0.00
2022-12-31T01:22:07.748Z,0.20
2022-12-31T01:27:09.660Z,0.20
2022-12-31T01:32:11.628Z,0.20
2022-12-31T01:37:13.546Z,0.30
2022-12-31T01:42:15.483Z,0.30
2022-12-31T01:47:22.287Z,0.40
2022-12-31T01:52:38.483Z,0.20
2022-12-31T01:57:41.120Z,0.40
2022-12-31T02:02:43.272Z,0.50
2022-12-31T02:07:47.472Z,0.50
2022-12-31T02:12:49.656Z,0.60
2022-12-31T02:18:03.360Z,0.60
2022-12-31T02:23:38.140Z,0.60
2022-12-31T02:28:54.956Z,0.80
2022-12-31T02:34:07.677Z,1.10
2022-12-31T02:39:11.067Z,1.10
2022-12-31T02:44:22.967Z,1.20
2022-12-31T02:49:49.988Z,1.20
2022-12-31T02:55:05.862Z,1.20
2022-12-31T03:00:30.099Z,1.30
2022-12-31T03:05:36.771Z,1.30
2022-12-31T03:10:38.680Z,1.40
2022-12-31T03:15:40.636Z,1.40
2022-12-31T03:21:05.656Z,1.50
2022-12-31T03:26:10.715Z,1.50
2022-12-31T03:31:12.764Z,1.70
2022-12-31T03:36:15.515Z,1.50
2022-12-31T03:41:17.460Z,2.30
2022-12-31T03:46:19.466Z,2.60
2022-12-31T03:51:21.392Z,3.60
2022-12-31T03:56:23.264Z,4.20
2022-12-31T04:01:25.511Z,4.90
2022-12-31T04:06:27.462Z,5.20
2022-12-31T04:11:29.369Z,5.50
2022-12-31T04:16:32.297Z,6.30
2022-12-31T04:21:35.331Z,7.10
2022-12-31T04:26:37.715Z,7.40
2022-12-31T04:31:39.635Z,7.40
2022-12-31T04:36:41.567Z,7.30
2022-12-31T04:41:43.477Z,7.40
2022-12-31T04:46:45.375Z,7.40
2022-12-31T04:51:47.284Z,7.40
2022-12-31T04:56:49.315Z,7.50
2022-12-31T05:01:51.352Z,7.50
2022-12-31T05:06:53.381Z,7.60
2022-12-31T05:11:55.488Z,7.60
2022-12-31T05:16:58.730Z,7.60
2022-12-31T05:22:19.329Z,7.50
2022-12-31T05:27:22.009Z,7.60
2022-12-31T05:32:24.001Z,7.70
2022-12-31T05:37:27.504Z,7.80
2022-12-31T05:42:29.544Z,7.80
2022-12-31T05:47:31.439Z,7.90
2022-12-31T05:52:33.328Z,8.00
2022-12-31T05:57:35.256Z,8.00
2022-12-31T06:02:37.221Z,8.10
2022-12-31T06:07:39.389Z,8.20
2022-12-31T06:12:41.392Z,8.20
2022-12-31T06:17:43.333Z,8.20
2022-12-31T06:22:47.234Z,8.30
2022-12-31T06:27:49.125Z,8.30
2022-12-31T06:32:51.114Z,8.20
2022-12-31T06:37:53.380Z,8.20
2022-12-31T06:42:59.875Z,8.20
2022-12-31T06:48:02.431Z,8.20
2022-12-31T06:53:04.482Z,8.20
2022-12-31T06:58:06.618Z,8.40
2022-12-31T07:03:35.630Z,8.50
2022-12-31T07:09:03.911Z,8.60
2022-12-31T07:14:23.323Z,8.70
2022-12-31T07:19:25.244Z,8.60
2022-12-31T07:24:27.685Z,8.70
2022-12-31T07:29:32.372Z,8.80
2022-12-31T07:34:40.773Z,8.90
2022-12-31T07:40:11.338Z,8.90
2022-12-31T07:45:28.602Z,9.00
2022-12-31T07:50:30.991Z,9.20
2022-12-31T07:55:34.595Z,9.30
2022-12-31T08:00:36.644Z,9.40
2022-12-31T08:05:44.550Z,9.60
2022-12-31T08:11:19.138Z,10.10
2022-12-31T08:16:21.891Z,10.30
2022-12-31T08:21:52.506Z,10.80
2022-12-31T08:27:12.293Z,11.60
2022-12-31T08:32:20.909Z,11.60
2022-12-31T08:37:31.732Z,11.40
2022-12-31T08:43:20.904Z,11.00
2022-12-31T08:48:36.640Z,10.80
2022-12-31T08:53:38.820Z,11.50
2022-12-31T08:58:55.579Z,11.70
2022-12-31T09:04:32.618Z,11.60
2022-12-31T09:09:42.835Z,12.30
2022-12-31T09:15:12.212Z,12.60
2022-12-31T09:20:23.341Z,12.10
2022-12-31T09:25:26.049Z,11.40
2022-12-31T09:30:32.539Z,11.20
2022-12-31T09:35:56.377Z,11.20
2022-12-31T09:41:15.075Z,11.90
2022-12-31T09:46:44.780Z,12.70
2022-12-31T09:52:14.728Z,12.80
2022-12-31T09:57:19.452Z,12.90
2022-12-31T10:02:43.082Z,13.10
2022-12-31T10:07:57.757Z,13.10
2022-12-31T10:13:06.871Z,13.50
2022-12-31T10:18:31.361Z,13.60
2022-12-31T10:23:55.034Z,13.50
2022-12-31T10:29:26.760Z,13.30
2022-12-31T10:34:41.996Z,13.20
2022-12-31T10:39:49.576Z,13.10
2022-12-31T10:45:13.071Z,12.90
2022-12-31T10:50:33.574Z,13.20
2022-12-31T10:56:07.380Z,13.80
2022-12-31T11:01:35.278Z,13.60
2022-12-31T11:07:02.051Z,13.40
2022-12-31T11:12:22.916Z,13.20
2022-12-31T11:18:03.864Z,13.00
2022-12-31T11:23:50.242Z,12.90
2022-12-31T11:28:54.942Z,12.80
2022-12-31T11:34:37.453Z,12.80
2022-12-31T11:40:15.263Z,12.70
2022-12-31T11:45:45.706Z,12.70
2022-12-31T11:51:18.604Z,12.80
2022-12-31T11:56:28.346Z,12.70
2022-12-31T12:01:45.258Z,12.70
2022-12-31T12:06:47.863Z,12.90
2022-12-31T12:12:03.381Z,13.00
2022-12-31T12:17:15.319Z,13.20
2022-12-31T12:22:26.989Z,13.60
2022-12-31T12:27:33.098Z,13.60
2022-12-31T12:32:35.717Z,13.60
2022-12-31T12:37:37.593Z,13.60
2022-12-31T12:42:48.104Z,13.50
2022-12-31T12:47:56.306Z,13.30
2022-12-31T12:53:22.462Z,13.20
2022-12-31T12:58:39.847Z,13.00
2022-12-31T13:04:35.443Z,12.90
2022-12-31T13:10:06.851Z,12.80
2022-12-31T13:15:41.337Z,12.80
2022-12-31T13:20:50.168Z,12.70
2022-12-31T13:26:10.383Z,12.70
2022-12-31T13:31:23.840Z,12.70
2022-12-31T13:36:28.577Z,12.60
2022-12-31T13:41:41.649Z,12.60
2022-12-31T13:46:55.720Z,12.60
2022-12-31T13:52:32.754Z,12.60
2022-12-31T13:57:49.662Z,12.60
2022-12-31T14:02:58.980Z,12.60
2022-12-31T14:08:02.430Z,12.60
2022-12-31T14:13:20.698Z,12.70
2022-12-31T14:18:37.972Z,12.60
2022-12-31T14:24:00.732Z,12.60
2022-12-31T14:29:07.128Z,12.70
2022-12-31T14:34:33.464Z,12.60
2022-12-31T14:39:59.184Z,12.50
2022-12-31T14:45:17.611Z,12.30
2022-12-31T14:50:28.652Z,12.20
2022-12-31T14:55:34.091Z,12.00
2022-12-31T15:00:38.603Z,12.00
2022-12-31T15:05:56.157Z,12.10
2022-12-31T15:11:06.776Z,12.10
2022-12-31T15:16:32.932Z,12.20
2022-12-31T15:21:40.717Z,12.30
2022-12-31T15:26:52.095Z,12.30
2022-12-31T15:31:56.107Z,12.20
2022-12-31T15:37:00.826Z,12.20
2022-12-31T15:42:36.804Z,12.20
2022-12-31T15:47:36.391Z,12.20
2022-12-31T15:52:49.512Z,12.20
2022-12-31T15:57:52.802Z,12.20
2022-12-31T16:02:55.813Z,11.90
2022-12-31T16:07:59.299Z,12.00
2022-12-31T16:13:01.379Z,11.90
2022-12-31T16:18:10.769Z,12.00
2022-12-31T16:23:27.507Z,12.10
2022-12-31T16:28:33.184Z,12.10
2022-12-31T16:33:35.125Z,12.10
2022-12-31T16:38:37.929Z,12.10
2022-12-31T16:43:42.140Z,12.00
2022-12-31T16:48:55.134Z,12.10
2022-12-31T16:53:58.226Z,12.20
2022-12-31T16:59:24.205Z,12.20
2022-12-31T17:04:26.445Z,12.20
2022-12-31T17:09:36.519Z,12.00
2022-12-31T17:14:49.858Z,12.20
2022-12-31T17:19:57.809Z,12.20
2022-12-31T17:25:06.019Z,12.10
2022-12-31T17:30:37.674Z,12.10
2022-12-31T17:35:42.423Z,12.20
2022-12-31T17:40:51.358Z,12.20
2022-12-31T17:45:54.847Z,12.30
2022-12-31T17:51:00.987Z,12.20
2022-12-31T17:56:06.282Z,12.20
2022-12-31T18:01:09.918Z,12.20
2022-12-31T18:06:16.581Z,12.10
2022-12-31T18:11:23.006Z,12.00
2022-12-31T18:16:24.997Z,12.00
2022-12-31T18:21:32.755Z,11.80
2022-12-31T18:26:34.823Z,11.60
2022-12-31T18:31:37.205Z,11.60
2022-12-31T18:36:39.302Z,11.60
2022-12-31T18:41:49.043Z,11.60
2022-12-31T18:46:51.021Z,11.70
2022-12-31T18:51:54.272Z,11.60
2022-12-31T18:56:57.336Z,11.40
2022-12-31T19:01:59.408Z,11.20
2022-12-31T19:07:01.343Z,10.90
2022-12-31T19:12:03.600Z,11.00
2022-12-31T19:22:06.298Z,10.80
2022-12-31T19:27:10.118Z,10.50
2022-12-31T19:32:12.103Z,10.30
2022-12-31T19:37:17.106Z,10.40
2022-12-31T19:42:19.097Z,10.40
2022-12-31T19:47:20.980Z,10.40
2022-12-31T19:52:22.877Z,10.40
2022-12-31T19:57:24.773Z,10.30
2022-12-31T20:02:26.830Z,10.60
2022-12-31T20:07:28.875Z,11.00
2022-12-31T20:12:31.173Z,11.30
2022-12-31T20:17:33.177Z,11.50
2022-12-31T20:22:35.208Z,11.70
2022-12-31T20:27:37.175Z,11.80
2022-12-31T20:32:39.186Z,11.80
2022-12-31T20:37:41.147Z,11.80
2022-12-31T20:42:43.071Z,11.80
2022-12-31T20:47:45.029Z,11.80
2022-12-31T20:52:46.992Z,11.60
2022-12-31T20:57:48.971Z,11.90
2022-12-31T21:02:57.906Z,11.90
2022-12-31T21:08:05.949Z,11.90
2022-12-31T21:13:08.223Z,11.80
2022-12-31T21:18:10.416Z,11.70
2022-12-31T21:23:12.295Z,11.70
2022-12-31T21:28:14.312Z,12.00
2022-12-31T21:33:16.197Z,12.00
2022-12-31T21:38:18.444Z,12.00
2022-12-31T21:43:20.618Z,12.10
2022-12-31T21:48:25.566Z,12.20
2022-12-31T21:53:34.226Z,12.40
2022-12-31T21:58:39.953Z,12.40
2022-12-31T22:03:42.149Z,12.40
2022-12-31T22:08:45.621Z,12.30
2022-12-31T22:13:48.825Z,12.20
2022-12-31T22:18:50.757Z,12.10
2022-12-31T22:23:55.112Z,12.20
2022-12-31T22:28:59.890Z,12.20
2022-12-31T22:34:02.056Z,11.80
2022-12-31T22:39:04.072Z,11.80
2022-12-31T22:44:06.078Z,11.60
2022-12-31T22:49:10.402Z,11.50
2022-12-31T22:54:12.492Z,11.40
2022-12-31T22:59:14.574Z,11.30
2022-12-31T23:04:16.631Z,11.20
2022-12-31T23:09:37.681Z,11.40
2022-12-31T23:14:58.173Z,11.40
2022-12-31T23:20:19.221Z,11.30
2022-12-31T23:25:21.442Z,11.30
2022-12-31T23:30:23.405Z,11.40
2022-12-31T23:35:25.451Z,11.80
2022-12-31T23:40:34.382Z,12.00
2022-12-31T23:45:36.716Z,11.70
2022-12-31T23:50:40.408Z,11.70
2022-12-31T23:55:42.363Z,11.70
